Gracey, Kentucky
Current Conditions -  °F | °C
As of 3:32 AM on Thursday 27 Nov 2014 (Local Time) from KHOP Reporting Station
Overcast Overcast  
Wind Chill: 28°   Ceiling: 1300
Heat Index: 36°   Visibility: 10mi
Dew Point: 36°   Wind: 12mph
Humidity: 100%   Direction: 310°NW
Pressure: 30.2"   Gusts: NA
Location:  36.88°N, 87.66°W
Report Text: KHOP 270932Z AUTO 31010KT 10SM BKN013 BKN025 OVC032 02/02 A3020 RMK AO2 CIG 013V032
Loading
Personal Weather Stations






























Interactive Weather Map New forecast layout! Learn more

10-Day Weather Forecast

Advertisements
Track Severe Weather on mobile